CheckWX is a tool to help pilots better visualize weather data.  It is not intended as a substitute for an official pre-flight weather briefing.

20:10:37 UTC

SBMN TAF
Ponta Pelada Airport
Manaus, Brazil
TAF SBMN 040900Z 0412/0424 06005KT 9999 BKN025 TN26/0412Z TX30/0417Z PROB40 TEMPO 0416/0420 7000 TSRA BKN020 FEW035CB RMK PEB

Apr-4@
12:00 UTC

Apr-4 @ 12:00 UTC

Apr-5@
00:00 UTC

Apr-5 @ 00:00 UTC

TAF SBMN 040900Z 0412/0424 06005KT 9999 BKN025 TN26/0412Z TX30/0417Z
Wind
  • 060° at 5 KTS
Cloud Levels
  • Broken at 2,500' AGL

Apr-4@
16:00 UTC

Apr-4 @ 16:00 UTC

Apr-4@
20:00 UTC

Apr-4 @ 20:00 UTC

PROB40 TEMPO 0416/0420 7000 TSRA BKN020 FEW035CB RMK PEB

Expired

Conditions
Thunderstorm, Rain
Cloud Levels
  • Broken at 2,000' AGL
  • Few at 3,500' AGL